Latest Weather Observations for Georgetown Airport

IDQ60801

Issued at 11:35 pm EST Monday 1 September 2014 (issued every 30 minutes, with the page automatically refreshed every 10 minutes)

About weather observations | Map of weather stations | Latest weather observations for QLD | Other Formats
Station Details ID: 030124 Name: GEORGETOWN AIRPORT Lat: -18.30 Lon: 143.53 Height: 301.77 m
Data from the previous 72 hours. | See also: Recent months at Georgetown Airport
Date/Time
EST
Temp
°C
App
Temp
°C
Dew
Point
Rel
Hum
%
Delta-T
°C
Wind Press
QNH
hPa
Press
MSL
hPa
Rain
since 9 am
mm
Dir
 
Spd
km/h
Gust
km/h
Spd
kts
Gust
kts
01/11:30pm 15.5 11.5 0.5 36 6.5 ENE 11 17 6 9 1016.4 - 0.0
01/11:00pm 16.7 14.2 -0.9 30 7.5 SW 2 6 1 3 1016.0 - 0.0
01/10:30pm 17.1 12.6 -0.6 30 7.7 SW 13 17 7 9 1015.8 - 0.0
01/10:00pm 17.1 15.0 -0.6 30 7.7 CALM 0 0 0 0 1015.5 - 0.0
01/09:30pm 17.8 15.7 -0.9 28 8.1 CALM 0 0 0 0 1015.4 - 0.0
01/09:00pm 19.6 17.6 0.1 27 8.7 CALM 0 0 0 0 1015.4 1013.7 0.0
01/08:30pm 20.4 18.4 -0.3 25 9.3 CALM 0 6 0 3 1015.3 - 0.0
01/08:00pm 22.6 20.2 -0.2 22 10.4 E 2 9 1 5 1015.0 - 0.0
01/07:30pm 21.9 18.7 -0.8 22 10.2 SSW 6 15 3 8 1014.8 - 0.0
01/07:00pm 23.2 19.7 -1.7 19 11.1 W 7 7 4 4 1014.3 - 0.0
01/06:30pm 26.6 23.1 -1.3 16 12.9 WSW 7 9 4 5 1013.9 - 0.0
01/06:00pm 29.3 25.3 -1.9 13 14.5 SW 9 13 5 7 1013.9 1012.3 0.0
01/05:30pm 30.5 26.0 -3.3 11 15.5 SSW 11 15 6 8 1013.6 - 0.0
01/05:00pm 31.2 27.7 -2.7 11 15.8 WNW 6 9 3 5 1013.3 - 0.0
01/04:30pm 31.0 26.0 -4.1 10 16.0 S 13 20 7 11 1013.2 - 0.0
01/04:00pm 31.1 27.6 -1.6 12 15.5 S 7 17 4 9 1013.2 - 0.0
01/03:30pm 31.0 27.1 -1.7 12 15.5 SSW 9 19 5 10 1013.5 - 0.0
01/03:00pm 30.9 27.0 -1.8 12 15.5 S 9 20 5 11 1013.6 1012.0 0.0
01/02:30pm 30.9 26.7 -0.7 13 15.2 S 11 19 6 10 1013.9 - 0.0
01/02:00pm 30.5 27.5 1.0 15 14.6 N 6 13 3 7 1014.6 - 0.0
01/01:30pm 30.1 26.5 0.6 15 14.4 SW 9 19 5 10 1015.1 - 0.0
01/01:00pm 29.9 27.0 1.4 16 14.1 WSW 6 13 3 7 1015.6 - 0.0
01/12:30pm 29.1 24.8 0.7 16 13.8 SSE 13 22 7 12 1016.1 - 0.0
01/12:00pm 28.5 25.0 1.1 17 13.4 SSW 9 17 5 9 1016.9 1015.3 0.0
01/11:30am 28.7 25.2 1.3 17 13.5 S 9 17 5 9 1017.2 - 0.0
01/11:00am 27.5 23.2 1.1 18 12.8 E 13 22 7 12 1017.5 - 0.0
01/10:30am 26.8 22.2 1.3 19 12.4 SE 15 24 8 13 1018.2 - 0.0
01/10:00am 25.5 21.3 1.6 21 11.5 E 13 19 7 10 1018.5 - 0.0
01/09:30am 25.2 21.3 3.2 24 10.9 ESE 13 19 7 10 1018.6 - 0.0
01/09:00am 24.2 19.6 3.5 26 10.2 E 17 24 9 13 1018.5 1016.9 0.0
01/08:30am 21.9 19.7 5.3 34 8.4 E 6 15 3 8 1018.3 - 0.0
01/08:00am 19.0 17.7 6.1 43 6.5 S 2 9 1 5 1017.7 - 0.0
01/07:30am 15.3 13.8 6.8 57 4.2 S 4 7 2 4 1017.5 - 0.0
01/07:00am 12.1 9.8 5.9 66 3.0 SSE 7 11 4 6 1017.1 - 0.0
01/06:30am 12.0 9.4 6.1 67 2.8 SE 9 15 5 8 1016.8 - 0.0
01/06:00am 12.3 11.5 6.4 67 2.8 SE 0 6 0 3 1016.4 1014.8 0.0
01/05:30am 13.4 12.5 6.0 61 3.6 CALM 0 0 0 0 1016.1 - 0.0
01/05:00am 15.1 12.7 6.9 58 4.1 NE 9 11 5 6 1015.8 - 0.0
01/04:30am 15.3 12.9 6.8 57 4.2 ENE 9 11 5 6 1015.5 - 0.0
01/04:00am 16.6 14.8 7.8 56 4.5 E 7 9 4 5 1015.3 - 0.0
01/03:30am 17.0 14.5 8.2 56 4.5 ESE 11 15 6 8 1015.1 - 0.0
01/03:00am 16.6 15.1 8.6 59 4.2 E 6 9 3 5 1015.2 1013.6 0.0
01/02:30am 16.7 16.2 7.9 56 4.5 CALM 0 4 0 2 1015.4 - 0.0
01/02:00am 17.6 15.5 8.2 54 4.9 ENE 9 13 5 7 1015.4 - 0.0
01/01:30am 19.0 16.3 8.9 52 5.4 E 13 17 7 9 1015.5 - 0.0
01/01:00am 17.5 15.2 7.3 51 5.2 ENE 9 13 5 7 1015.4 - 0.0
01/12:30am 16.2 13.9 5.8 50 5.1 NE 7 13 4 7 1015.3 - 0.0
01/12:00am 15.3 13.5 3.5 45 5.5 ESE 2 6 1 3 1015.5 1014.3 0.0
 
Date/Time
EST
Temp
°C
App
Temp
°C
Dew
Point
Rel
Hum
%
Delta-T
°C
Wind Press
QNH
hPa
Press
MSL
hPa
Rain
since 9 am
mm
Dir
 
Spd
km/h
Gust
km/h
Spd
kts
Gust
kts
31/11:30pm 16.0 13.5 3.8 44 5.7 E 6 7 3 4 1015.4 - 0.0
31/11:00pm 17.1 15.7 3.4 40 6.4 CALM 0 4 0 2 1015.2 - 0.0
31/10:30pm 18.4 15.7 3.5 37 7.1 S 7 11 4 6 1015.2 - 0.0
31/10:00pm 17.5 14.4 3.4 39 6.6 SSW 9 11 5 6 1015.1 - 0.0
31/09:30pm 18.0 16.1 3.1 37 7.0 NE 2 9 1 5 1015.1 - 0.0
31/09:00pm 19.7 18.4 4.2 36 7.5 CALM 0 0 0 0 1014.9 1013.7 0.0
31/08:30pm 19.8 18.3 3.1 33 8.0 CALM 0 0 0 0 1014.8 - 0.0
31/08:00pm 21.4 18.7 3.6 31 8.7 E 7 11 4 6 1014.6 - 0.0
31/07:30pm 22.3 19.7 3.4 29 9.2 E 6 9 3 5 1014.1 - 0.0
31/07:00pm 23.7 22.1 2.5 25 10.3 CALM 0 0 0 0 1013.6 - 0.0
31/06:30pm 25.8 24.2 2.5 22 11.5 CALM 0 0 0 0 1013.1 - 0.0
31/06:00pm 28.4 25.7 2.6 19 12.9 S 6 9 3 5 1012.8 1011.6 0.0
31/05:30pm 28.8 26.1 3.6 20 12.9 SSW 7 11 4 6 1012.6 - 0.0
31/05:00pm 29.6 26.5 3.5 19 13.4 WSW 9 15 5 8 1012.6 - 0.0
31/04:30pm 29.5 26.2 2.7 18 13.6 SSW 9 19 5 10 1012.7 - 0.0
31/04:00pm 29.9 25.9 3.0 18 13.7 S 13 20 7 11 1012.8 - 0.0
31/03:30pm 29.4 24.7 3.4 19 13.3 W 17 26 9 14 1012.8 - 0.0
31/03:00pm 28.9 24.6 3.0 19 13.1 SW 15 24 8 13 1013.0 1011.9 0.0
31/02:30pm 29.0 25.9 3.8 20 12.9 ENE 9 20 5 11 1013.4 - 0.0
31/02:00pm 28.5 25.1 4.1 21 12.6 SSW 11 20 6 11 1013.7 - 0.0
31/01:30pm 27.8 24.1 4.2 22 12.1 SE 13 24 7 13 1014.3 - 0.0
31/01:00pm 27.7 24.3 4.1 22 12.1 SSW 11 22 6 12 1014.8 - 0.0
31/12:30pm 27.6 23.8 4.0 22 12.1 S 13 20 7 11 1015.4 - 0.0
31/12:00pm 27.3 24.5 5.0 24 11.6 SSE 9 15 5 8 1015.9 1014.7 0.0
31/11:30am 26.3 22.5 4.1 24 11.3 S 13 20 7 11 1016.6 - 0.0
31/11:00am 26.9 23.3 5.2 25 11.3 E 13 22 7 12 1017.0 - 0.0
31/10:30am 24.4 21.1 6.2 31 9.5 ENE 13 20 7 11 1017.4 - 0.0
31/10:00am 23.6 20.9 7.3 35 8.6 NE 11 17 6 9 1017.8 - 0.0
31/09:30am 22.6 20.0 7.6 38 7.9 ENE 11 19 6 10 1018.1 - 0.0
31/09:00am 20.5 17.2 8.2 45 6.5 ENE 15 20 8 11 1018.2 1017.0 0.0
31/08:30am 19.2 17.2 8.5 50 5.6 ENE 9 13 5 7 1018.1 - 0.0
31/08:00am 17.6 16.5 8.5 55 4.7 SE 4 7 2 4 1017.8 - 0.0
31/07:30am 14.2 13.9 8.6 69 2.9 CALM 0 0 0 0 1017.7 - 0.0
31/07:00am 10.7 9.6 6.8 77 1.9 SW 2 9 1 5 1017.5 - 0.0
31/06:30am 11.2 9.5 7.7 79 1.7 SW 6 9 3 5 1017.2 - 0.0
31/06:00am 11.3 9.4 7.6 78 1.8 WSW 7 9 4 5 1016.8 1015.5 0.0
31/05:30am 11.9 10.8 8.4 79 1.8 SW 4 7 2 4 1016.4 - 0.0
31/05:00am 11.9 11.3 7.4 74 2.2 CALM 0 9 0 5 1016.1 - 0.0
31/04:30am 13.1 11.8 7.5 69 2.8 N 4 9 2 5 1016.1 - 0.0
31/04:00am 13.4 11.6 8.0 70 2.7 N 7 11 4 6 1015.9 - 0.0
31/03:30am 13.6 12.7 7.8 68 2.9 WNW 2 6 1 3 1015.9 - 0.0
31/03:00am 15.1 13.6 8.3 64 3.5 WNW 6 7 3 4 1016.0 1014.9 0.0
31/02:30am 16.5 15.0 8.5 59 4.1 NE 6 9 3 5 1016.2 - 0.0
31/02:00am 17.3 15.3 8.7 57 4.5 NE 9 15 5 8 1016.2 - 0.0
31/01:30am 18.5 16.3 9.3 55 4.9 E 11 17 6 9 1016.1 - 0.0
31/01:00am 19.0 16.1 9.8 55 5.0 ENE 15 20 8 11 1016.2 - 0.0
31/12:30am 19.8 16.5 9.7 52 5.5 ENE 17 26 9 14 1016.1 - 0.0
31/12:00am 20.5 17.9 9.4 49 6.0 ENE 13 20 7 11 1016.0 1014.8 0.0
 
Date/Time
EST
Temp
°C
App
Temp
°C
Dew
Point
Rel
Hum
%
Delta-T
°C
Wind Press
QNH
hPa
Press
MSL
hPa
Rain
since 9 am
mm
Dir
 
Spd
km/h
Gust
km/h
Spd
kts
Gust
kts
30/11:30pm 21.1 18.0 9.0 46 6.5 ENE 15 24 8 13 1015.7 - 0.0
30/11:00pm 20.7 17.6 5.5 37 7.6 E 11 17 6 9 1015.7 - 0.0
30/10:30pm 18.9 16.2 3.9 37 7.2 E 7 11 4 6 1015.8 - 0.0
30/10:00pm 18.6 15.8 2.9 35 7.4 ENE 7 9 4 5 1015.7 - 0.0
30/09:30pm 20.2 18.4 3.4 33 8.1 E 2 6 1 3 1015.7 - 0.0
30/09:00pm 22.3 19.3 3.9 30 9.1 SE 9 11 5 6 1015.5 1014.3 0.0
30/08:30pm 22.1 19.4 3.7 30 9.0 ESE 7 9 4 5 1015.6 - 0.0
30/08:00pm 23.2 20.1 3.7 28 9.6 ESE 9 15 5 8 1015.3 - 0.0
30/07:30pm 23.3 20.6 3.8 28 9.7 SSE 7 9 4 5 1015.0 - 0.0
30/07:00pm 24.5 21.8 3.8 26 10.3 S 7 7 4 4 1014.5 - 0.0
30/06:30pm 26.0 23.2 3.3 23 11.3 SSW 7 11 4 6 1014.1 - 0.0
30/06:00pm 27.5 25.0 3.9 22 12.0 SSW 6 7 3 4 1013.9 1012.7 0.0
30/05:30pm 28.3 25.6 3.9 21 12.5 S 7 17 4 9 1013.7 - 0.0
30/05:00pm 28.9 25.8 3.7 20 12.9 SW 9 15 5 8 1013.7 - 0.0
30/04:30pm 29.2 25.4 3.9 20 13.0 SW 13 20 7 11 1013.8 - 0.0
30/04:00pm 29.5 26.0 3.5 19 13.3 SSW 11 22 6 12 1013.7 - 0.0
30/03:30pm 28.8 26.2 4.3 21 12.7 E 7 17 4 9 1013.8 - 0.0
30/03:00pm 28.5 26.0 4.7 22 12.4 SE 7 15 4 8 1014.1 1012.9 0.0
30/02:30pm 28.4 24.7 4.6 22 12.4 SSW 13 20 7 11 1014.6 - 0.0
30/02:00pm 27.9 24.7 4.9 23 12.0 SSE 11 20 6 11 1015.1 - 0.0
30/01:30pm 28.1 24.5 5.0 23 12.0 E 13 22 7 12 1015.5 - 0.0
30/01:00pm 27.7 22.8 5.3 24 11.7 E 20 24 11 13 1016.2 - 0.0
30/12:30pm 26.5 23.0 5.5 26 10.9 ESE 13 24 7 13 1016.8 - 0.0
30/12:00pm 26.4 22.3 6.4 28 10.6 ESE 17 26 9 14 1017.3 1016.1 0.0
30/11:30am 25.8 21.3 6.9 30 10.1 E 20 32 11 17 1017.7 - 0.0
30/11:00am 25.8 21.4 7.4 31 9.9 E 20 33 11 18 1018.2 - 0.0
30/10:30am 25.5 21.4 8.5 34 9.3 ESE 20 39 11 21 1018.5 - 0.0
30/10:00am 23.8 18.5 8.6 38 8.2 ESE 26 39 14 21 1018.8 - 0.0
30/09:30am 23.0 18.3 9.4 42 7.4 E 24 35 13 19 1019.0 - 0.0
30/09:00am 22.7 19.0 10.2 45 6.9 E 20 39 11 21 1018.8 1017.6 0.0
30/08:30am 21.2 16.7 10.1 49 6.1 E 24 33 13 18 1018.5 - 0.0
30/08:00am 20.3 17.1 9.8 51 5.7 E 17 26 9 14 1018.1 - 0.0
30/07:30am 18.9 15.7 9.9 56 4.9 E 17 28 9 15 1017.8 - 0.0
30/07:00am 18.4 15.8 9.2 55 4.9 ESE 13 20 7 11 1017.4 - 0.0
30/06:30am 18.4 15.4 9.2 55 4.9 E 15 24 8 13 1017.2 - 0.0
30/06:00am 18.0 15.6 8.8 55 4.8 E 11 19 6 10 1016.8 1015.6 0.0
30/05:30am 18.4 15.0 9.2 55 4.9 E 17 26 9 14 1016.7 - 0.0
30/05:00am 18.1 15.9 9.2 56 4.7 E 11 17 6 9 1016.3 - 0.0
30/04:30am 18.6 15.2 9.1 54 5.0 E 17 28 9 15 1016.1 - 0.0
30/04:00am 18.6 15.5 8.8 53 5.2 E 15 28 8 15 1016.3 - 0.0
30/03:30am 18.8 15.5 8.2 50 5.5 E 15 20 8 11 1016.2 - 0.0
30/03:00am 18.8 15.5 8.2 50 5.5 E 15 24 8 13 1016.3 1015.1 0.0
30/02:30am 19.1 14.9 8.1 49 5.7 E 20 30 11 16 1016.2 - 0.0
30/02:00am 19.2 15.5 7.9 48 5.9 E 17 24 9 13 1016.3 - 0.0
30/01:30am 19.0 15.3 8.1 49 5.7 E 17 24 9 13 1016.4 - 0.0
30/01:00am 19.0 15.9 8.9 52 5.4 E 15 20 8 11 1016.6 - 0.0
30/12:30am 19.5 16.2 9.4 52 5.4 E 17 28 9 15 1016.9 - 0.0
30/12:00am 19.8 15.9 9.4 51 5.6 ENE 20 28 11 15 1017.2 1016.0 0.0

Other Formats:

Comma delimited format used in spreadsheet applications
http://www.bom.gov.au/fwo/IDQ60801/IDQ60801.94274.axf

JavaScript Object Notation format (JSON) in row-major order
http://www.bom.gov.au/fwo/IDQ60801/IDQ60801.94274.json